createdAt,value
2023-01-27T00:00:17.958Z,16.77
2023-01-27T00:02:44.853Z,25.63
2023-01-27T00:05:14.011Z,23.85
2023-01-27T00:07:45.845Z,19.75
2023-01-27T00:10:17.600Z,25.60
2023-01-27T00:13:04.105Z,21.10
2023-01-27T00:15:32.282Z,19.38
2023-01-27T00:17:59.034Z,23.10
2023-01-27T00:20:44.554Z,23.75
2023-01-27T00:23:38.614Z,21.08
2023-01-27T00:26:08.068Z,23.85
2023-01-27T00:28:35.897Z,20.58
2023-01-27T00:31:03.488Z,23.38
2023-01-27T00:33:30.580Z,20.50
2023-01-27T00:36:08.201Z,23.00
2023-01-27T00:38:41.818Z,20.35
2023-01-27T00:41:21.253Z,21.05
2023-01-27T00:43:49.687Z,19.38
2023-01-27T00:46:17.540Z,20.27
2023-01-27T00:48:44.761Z,19.48
2023-01-27T00:51:13.595Z,22.50
2023-01-27T00:53:41.146Z,20.67
2023-01-27T00:56:08.383Z,22.33
2023-01-27T00:58:35.511Z,19.58
2023-01-27T01:01:04.336Z,17.95
2023-01-27T01:03:33.017Z,21.58
2023-01-27T01:06:05.104Z,20.65
2023-01-27T01:08:33.647Z,20.92
2023-01-27T01:11:03.627Z,19.38
2023-01-27T01:13:30.312Z,20.88
2023-01-27T01:18:24.406Z,17.30
2023-01-27T01:20:51.197Z,20.15
2023-01-27T01:23:18.108Z,18.17
2023-01-27T01:25:55.659Z,21.73
2023-01-27T01:28:23.355Z,17.33
2023-01-27T01:30:51.084Z,18.90
2023-01-27T01:33:17.935Z,19.65
2023-01-27T01:35:44.693Z,21.27
2023-01-27T01:38:11.478Z,21.25
2023-01-27T01:43:18.736Z,20.75
2023-01-27T01:45:49.295Z,20.17
2023-01-27T01:48:36.699Z,19.40
2023-01-27T01:51:32.382Z,23.70
2023-01-27T01:54:03.103Z,22.05
2023-01-27T01:56:36.066Z,20.65
2023-01-27T01:59:11.275Z,19.63
2023-01-27T02:01:38.045Z,19.27
2023-01-27T02:06:42.459Z,17.10
2023-01-27T02:09:10.983Z,17.75
2023-01-27T02:11:37.696Z,20.85
2023-01-27T02:16:31.994Z,18.25
2023-01-27T02:18:58.805Z,21.42
2023-01-27T02:24:01.216Z,25.73
2023-01-27T02:26:29.751Z,23.58
2023-01-27T02:29:00.282Z,24.30
2023-01-27T02:31:27.334Z,28.02
2023-01-27T02:34:00.881Z,28.13
2023-01-27T02:36:30.217Z,30.70
2023-01-27T02:38:59.970Z,30.35
2023-01-27T02:41:39.843Z,31.00
2023-01-27T02:44:08.357Z,35.58
2023-01-27T02:46:35.103Z,30.90
2023-01-27T02:49:03.095Z,34.22
2023-01-27T02:51:30.157Z,33.85
2023-01-27T02:53:58.757Z,32.72
2023-01-27T02:56:26.382Z,32.58
2023-01-27T02:58:56.323Z,35.78
2023-01-27T03:01:32.724Z,46.03
2023-01-27T03:04:00.340Z,45.42
2023-01-27T03:06:27.045Z,42.28
2023-01-27T03:08:53.895Z,44.33
2023-01-27T03:14:08.103Z,37.58
2023-01-27T03:16:53.654Z,43.58
2023-01-27T03:19:20.471Z,40.80
2023-01-27T03:21:50.936Z,46.35
2023-01-27T03:24:18.017Z,47.13
2023-01-27T03:26:45.025Z,45.13
2023-01-27T03:29:33.393Z,46.63
2023-01-27T03:32:01.249Z,41.60
2023-01-27T03:34:29.345Z,46.60
2023-01-27T03:37:22.502Z,52.05
2023-01-27T03:40:09.722Z,41.40
2023-01-27T03:42:55.018Z,41.50
2023-01-27T03:45:40.482Z,35.95
2023-01-27T03:48:07.142Z,41.25
2023-01-27T03:53:10.746Z,38.40
2023-01-27T03:55:38.512Z,39.38
2023-01-27T03:58:20.200Z,44.67
2023-01-27T04:01:06.907Z,37.65
2023-01-27T04:03:53.977Z,40.90
2023-01-27T04:06:41.933Z,39.92
2023-01-27T04:09:09.996Z,43.97
2023-01-27T04:11:55.341Z,39.67
2023-01-27T04:14:42.019Z,41.70
2023-01-27T04:17:13.127Z,40.33
2023-01-27T04:19:40.199Z,31.55
2023-01-27T04:22:08.282Z,27.80
2023-01-27T04:24:35.108Z,29.05
2023-01-27T04:27:07.645Z,34.40
2023-01-27T04:29:36.979Z,28.90
2023-01-27T04:32:06.116Z,30.83
2023-01-27T04:34:33.322Z,26.60
2023-01-27T04:37:00.249Z,27.63
2023-01-27T04:39:27.003Z,25.38
2023-01-27T04:44:20.363Z,25.98
2023-01-27T04:49:14.151Z,28.07
2023-01-27T04:51:40.918Z,30.63
2023-01-27T04:54:08.490Z,32.05
2023-01-27T04:56:59.678Z,29.45
2023-01-27T04:59:26.627Z,26.63
2023-01-27T05:01:53.381Z,24.25
2023-01-27T05:04:20.391Z,27.27
2023-01-27T05:06:47.210Z,29.67
2023-01-27T05:09:13.860Z,31.55
2023-01-27T05:14:07.180Z,27.80
2023-01-27T05:16:34.090Z,29.02
2023-01-27T05:21:28.700Z,30.65
2023-01-27T05:26:27.380Z,30.67
2023-01-27T05:28:56.322Z,29.50
2023-01-27T05:31:25.855Z,27.50
2023-01-27T05:33:54.629Z,31.25
2023-01-27T05:36:23.350Z,32.15
2023-01-27T05:38:50.543Z,30.13
2023-01-27T05:41:19.124Z,32.50
2023-01-27T05:43:47.425Z,28.40
2023-01-27T05:46:16.733Z,28.02
2023-01-27T05:48:45.911Z,31.60
2023-01-27T05:51:15.149Z,29.90
2023-01-27T05:53:42.906Z,29.27
2023-01-27T05:56:11.795Z,29.10
2023-01-27T05:58:39.202Z,34.92
2023-01-27T06:01:11.627Z,32.38
2023-01-27T06:03:39.532Z,35.50
2023-01-27T06:06:08.049Z,32.72
2023-01-27T06:08:35.912Z,34.05
2023-01-27T06:11:03.515Z,31.13
2023-01-27T06:13:30.388Z,28.85
2023-01-27T06:15:57.107Z,37.03
2023-01-27T06:18:24.251Z,32.50
2023-01-27T06:20:51.015Z,35.97
2023-01-27T06:25:49.084Z,32.38
2023-01-27T06:28:28.679Z,39.75
2023-01-27T06:30:57.131Z,33.80
2023-01-27T06:33:23.980Z,36.50
2023-01-27T06:35:50.809Z,36.15
2023-01-27T06:38:17.460Z,33.65
2023-01-27T06:43:14.575Z,38.63
2023-01-27T06:45:41.482Z,35.40
2023-01-27T06:48:11.192Z,39.90
2023-01-27T06:50:37.939Z,32.65
2023-01-27T06:53:06.800Z,37.65
2023-01-27T06:56:07.576Z,38.08
2023-01-27T06:58:34.367Z,34.83
2023-01-27T07:01:01.151Z,36.97
2023-01-27T07:03:27.873Z,34.80
2023-01-27T07:05:54.646Z,29.60
2023-01-27T07:08:21.301Z,32.47
2023-01-27T07:13:15.302Z,40.97
2023-01-27T07:15:42.244Z,34.60
2023-01-27T07:18:11.126Z,32.92
2023-01-27T07:20:37.894Z,44.47
2023-01-27T07:23:05.428Z,37.13
2023-01-27T07:25:34.665Z,29.10
2023-01-27T07:28:02.889Z,38.78
2023-01-27T07:30:30.302Z,36.75
2023-01-27T07:33:05.378Z,37.95
2023-01-27T07:35:32.101Z,35.50
2023-01-27T07:40:26.022Z,35.23
2023-01-27T07:42:52.722Z,40.20
2023-01-27T07:45:19.971Z,37.15
2023-01-27T07:50:13.502Z,38.55
2023-01-27T07:52:40.416Z,32.78
2023-01-27T07:57:35.018Z,45.28
2023-01-27T08:00:01.884Z,41.85
2023-01-27T08:05:05.635Z,37.92
2023-01-27T08:07:32.447Z,35.38
2023-01-27T08:09:59.265Z,37.90
2023-01-27T08:12:25.876Z,37.80
2023-01-27T08:17:19.064Z,38.95
2023-01-27T08:22:17.456Z,36.13
2023-01-27T08:24:44.095Z,35.60
2023-01-27T08:29:38.221Z,34.47
2023-01-27T08:34:31.817Z,27.77
2023-01-27T08:36:58.670Z,36.65
2023-01-27T08:39:25.322Z,31.30
2023-01-27T08:44:19.144Z,36.53
2023-01-27T08:46:46.038Z,34.20
2023-01-27T08:49:15.541Z,29.73
2023-01-27T08:51:43.255Z,27.17
2023-01-27T08:54:09.955Z,31.00
2023-01-27T08:56:36.689Z,31.60
2023-01-27T09:01:30.080Z,25.45
2023-01-27T09:03:56.781Z,24.70
2023-01-27T09:09:11.302Z,25.33
2023-01-27T09:11:41.418Z,23.38
2023-01-27T09:14:08.578Z,23.48
2023-01-27T09:16:35.310Z,21.98
2023-01-27T09:19:02.285Z,23.35
2023-01-27T09:21:29.520Z,22.10
2023-01-27T09:23:56.349Z,19.15
2023-01-27T09:26:23.079Z,19.63
2023-01-27T09:31:16.423Z,19.50
2023-01-27T09:33:43.125Z,19.42
2023-01-27T09:38:55.457Z,17.58
2023-01-27T09:41:32.109Z,18.30
2023-01-27T09:44:23.150Z,19.55
2023-01-27T09:47:31.542Z,17.23
2023-01-27T09:50:17.081Z,20.30
2023-01-27T09:53:15.154Z,19.90
2023-01-27T09:56:06.448Z,20.25
2023-01-27T09:58:55.939Z,18.17
2023-01-27T10:01:37.196Z,19.85
2023-01-27T10:04:25.057Z,23.20
2023-01-27T10:09:45.488Z,18.15
2023-01-27T10:12:40.292Z,20.15
2023-01-27T10:15:16.381Z,15.30
2023-01-27T10:18:01.538Z,17.33
2023-01-27T10:21:05.577Z,18.10
2023-01-27T10:23:51.711Z,19.08
2023-01-27T10:26:49.374Z,17.27
2023-01-27T10:29:21.360Z,14.93
2023-01-27T10:32:11.203Z,18.58
2023-01-27T10:34:46.502Z,16.02
2023-01-27T10:37:25.938Z,20.75
2023-01-27T10:40:21.556Z,17.48
2023-01-27T10:42:59.484Z,14.88
2023-01-27T10:45:46.661Z,17.30
2023-01-27T10:48:25.587Z,17.23
2023-01-27T10:51:19.583Z,18.77
2023-01-27T10:54:02.906Z,14.95
2023-01-27T10:56:40.342Z,14.60
2023-01-27T10:59:31.472Z,16.02
2023-01-27T11:02:15.406Z,18.02
2023-01-27T11:04:49.361Z,21.55
2023-01-27T11:07:21.775Z,20.45
2023-01-27T11:10:10.951Z,15.77
2023-01-27T11:12:43.438Z,16.25
2023-01-27T11:15:26.291Z,19.92
2023-01-27T11:18:03.756Z,15.45
2023-01-27T11:20:36.687Z,20.67
2023-01-27T11:23:09.228Z,17.67
2023-01-27T11:26:23.371Z,17.83
2023-01-27T11:29:17.459Z,16.15
2023-01-27T11:32:05.442Z,18.20
2023-01-27T11:34:59.896Z,18.90
2023-01-27T11:37:37.146Z,19.60
2023-01-27T11:42:35.208Z,14.50
2023-01-27T11:45:02.488Z,13.73
2023-01-27T11:47:34.373Z,13.00
2023-01-27T11:50:01.619Z,11.15
2023-01-27T11:52:29.137Z,13.18
2023-01-27T11:55:17.676Z,12.27
2023-01-27T11:57:53.644Z,12.65
2023-01-27T12:00:32.001Z,10.50
2023-01-27T12:03:07.494Z,15.60
2023-01-27T12:05:36.282Z,15.50
2023-01-27T12:08:04.664Z,14.48
2023-01-27T12:10:33.113Z,11.35
2023-01-27T12:13:20.383Z,14.52
2023-01-27T12:16:01.954Z,11.55
2023-01-27T12:18:32.757Z,12.10
2023-01-27T12:21:01.551Z,11.38
2023-01-27T12:23:55.814Z,10.30
2023-01-27T12:26:37.379Z,13.88
2023-01-27T12:29:29.118Z,15.32
2023-01-27T12:31:58.434Z,11.02
2023-01-27T12:34:27.778Z,13.57
2023-01-27T12:36:56.115Z,12.85
2023-01-27T12:39:47.057Z,15.45
2023-01-27T12:42:35.096Z,13.75
2023-01-27T12:45:29.800Z,12.13
2023-01-27T12:48:10.461Z,17.70
2023-01-27T12:51:01.513Z,18.60
2023-01-27T12:53:28.267Z,18.40
2023-01-27T12:58:39.093Z,12.43
2023-01-27T13:01:28.110Z,16.15
2023-01-27T13:04:23.269Z,17.38
2023-01-27T13:06:55.135Z,18.35
2023-01-27T13:09:29.762Z,15.18
2023-01-27T13:12:00.628Z,18.38
2023-01-27T13:14:35.129Z,19.15
2023-01-27T13:17:02.819Z,14.18
2023-01-27T13:19:45.521Z,18.63
2023-01-27T13:22:19.924Z,21.65
2023-01-27T13:24:50.498Z,13.60
2023-01-27T13:27:21.792Z,16.55
2023-01-27T13:30:00.879Z,14.93
2023-01-27T13:32:30.867Z,13.52
2023-01-27T13:35:15.708Z,11.95
2023-01-27T13:37:51.298Z,14.82
2023-01-27T13:40:27.342Z,15.45
2023-01-27T13:43:12.578Z,18.00
2023-01-27T13:45:41.668Z,11.90
2023-01-27T13:48:29.478Z,18.15
2023-01-27T13:53:33.526Z,14.80
2023-01-27T13:56:07.437Z,15.95
2023-01-27T13:58:52.932Z,14.52
2023-01-27T14:01:38.488Z,15.52
2023-01-27T14:04:14.047Z,20.55
2023-01-27T14:06:49.090Z,18.27
2023-01-27T14:09:27.543Z,15.27
2023-01-27T14:12:06.173Z,16.88
2023-01-27T14:14:58.095Z,18.15
2023-01-27T14:18:05.208Z,18.95
2023-01-27T14:20:52.526Z,19.02
2023-01-27T14:23:22.100Z,14.02
2023-01-27T14:26:08.443Z,19.15
2023-01-27T14:28:46.520Z,19.85
2023-01-27T14:31:17.763Z,17.63
2023-01-27T14:33:47.358Z,14.20
2023-01-27T14:36:23.511Z,18.38
2023-01-27T14:39:17.830Z,18.25
2023-01-27T14:41:49.023Z,17.90
2023-01-27T14:44:43.850Z,19.73
2023-01-27T14:47:41.614Z,20.15
2023-01-27T14:50:18.145Z,18.67
2023-01-27T14:52:54.189Z,17.88
2023-01-27T14:55:56.402Z,17.08
2023-01-27T14:58:37.637Z,16.52
2023-01-27T15:01:28.102Z,16.83
2023-01-27T15:04:19.886Z,19.00
2023-01-27T15:07:02.421Z,22.83
2023-01-27T15:10:07.960Z,20.35
2023-01-27T15:12:48.061Z,18.83
2023-01-27T15:15:33.458Z,14.90
2023-01-27T15:18:03.866Z,17.83
2023-01-27T15:21:22.081Z,16.38
2023-01-27T15:24:03.724Z,20.92
2023-01-27T15:26:32.558Z,20.52
2023-01-27T15:29:00.068Z,17.83
2023-01-27T15:31:28.916Z,15.80
2023-01-27T15:33:56.788Z,15.45
2023-01-27T15:36:32.581Z,15.00
2023-01-27T15:39:11.617Z,15.98
2023-01-27T15:42:01.531Z,18.08
2023-01-27T15:44:31.077Z,18.38
2023-01-27T15:47:14.630Z,14.38
2023-01-27T15:52:47.373Z,13.98
2023-01-27T15:55:29.466Z,17.58
2023-01-27T15:58:18.267Z,17.02
2023-01-27T16:00:55.105Z,15.95
2023-01-27T16:03:35.418Z,16.83
2023-01-27T16:06:09.756Z,17.48
2023-01-27T16:08:46.927Z,15.50
2023-01-27T16:13:50.562Z,17.50
2023-01-27T16:16:17.217Z,19.85
2023-01-27T16:21:54.646Z,13.98
2023-01-27T16:24:44.911Z,17.88
2023-01-27T16:27:30.783Z,16.77
2023-01-27T16:30:06.144Z,17.63
2023-01-27T16:32:48.391Z,18.45
2023-01-27T16:35:21.314Z,16.80
2023-01-27T16:38:14.262Z,19.67
2023-01-27T16:40:47.004Z,23.52
2023-01-27T16:43:29.856Z,23.73
2023-01-27T16:45:59.393Z,19.63
2023-01-27T16:48:46.710Z,19.55
2023-01-27T16:51:21.860Z,24.70
2023-01-27T16:53:50.675Z,16.02
2023-01-27T16:56:27.945Z,19.23
2023-01-27T17:01:36.237Z,16.85
2023-01-27T17:04:18.850Z,18.98
2023-01-27T17:06:46.327Z,21.17
2023-01-27T17:09:28.080Z,24.42
2023-01-27T17:11:55.547Z,21.60
2023-01-27T17:14:31.814Z,20.52
2023-01-27T17:17:01.616Z,25.13
2023-01-27T17:19:32.314Z,25.42
2023-01-27T17:22:01.274Z,20.15
2023-01-27T17:24:32.095Z,25.52
2023-01-27T17:27:26.292Z,25.38
2023-01-27T17:30:08.292Z,24.10
2023-01-27T17:32:37.686Z,24.00
2023-01-27T17:35:28.200Z,24.85
2023-01-27T17:38:15.486Z,30.45
2023-01-27T17:40:45.084Z,24.77
2023-01-27T17:43:31.948Z,27.17
2023-01-27T17:46:23.439Z,19.60
2023-01-27T17:49:01.290Z,27.20
2023-01-27T17:51:35.402Z,24.90
2023-01-27T17:54:13.329Z,27.60
2023-01-27T17:56:39.990Z,25.75
2023-01-27T18:01:35.777Z,31.85
2023-01-27T18:04:03.415Z,30.83
2023-01-27T18:06:30.112Z,28.92
2023-01-27T18:09:00.811Z,33.20
2023-01-27T18:11:31.268Z,32.25
2023-01-27T18:14:06.440Z,30.77
2023-01-27T18:16:33.493Z,29.63
2023-01-27T18:19:08.872Z,33.97
2023-01-27T18:21:36.573Z,32.60
2023-01-27T18:24:19.929Z,26.75
2023-01-27T18:26:48.534Z,36.17
2023-01-27T18:29:22.706Z,33.00
2023-01-27T18:31:57.770Z,31.67
2023-01-27T18:34:26.748Z,28.50
2023-01-27T18:37:00.743Z,34.92
2023-01-27T18:39:36.549Z,29.98
2023-01-27T18:42:10.087Z,28.75
2023-01-27T18:44:37.078Z,33.78
2023-01-27T18:47:23.161Z,33.30
2023-01-27T18:49:55.851Z,33.15
2023-01-27T18:52:23.331Z,30.73
2023-01-27T18:54:54.764Z,32.90
2023-01-27T18:57:21.574Z,30.75
2023-01-27T18:59:48.187Z,30.67
2023-01-27T19:04:45.257Z,34.47
2023-01-27T19:07:13.781Z,27.92
2023-01-27T19:09:40.596Z,33.83
2023-01-27T19:12:07.342Z,33.28
2023-01-27T19:14:34.824Z,35.03
2023-01-27T19:17:01.808Z,37.15
2023-01-27T19:19:28.839Z,31.35
2023-01-27T19:21:55.465Z,31.85
2023-01-27T19:26:49.384Z,34.58
2023-01-27T19:29:16.077Z,33.42
2023-01-27T19:31:42.795Z,35.72
2023-01-27T19:36:45.491Z,37.97
2023-01-27T19:39:21.233Z,38.83
2023-01-27T19:41:48.338Z,33.08
2023-01-27T19:44:15.698Z,34.65
2023-01-27T19:46:42.779Z,35.95
2023-01-27T19:49:17.661Z,36.80
2023-01-27T19:51:44.954Z,36.47
2023-01-27T19:54:12.172Z,40.83
2023-01-27T19:56:39.088Z,36.22
2023-01-27T19:59:05.755Z,35.70
2023-01-27T20:03:59.109Z,40.40
2023-01-27T20:06:28.682Z,36.13
2023-01-27T20:08:57.520Z,39.50
2023-01-27T20:11:37.773Z,41.47
2023-01-27T20:14:15.390Z,39.20
2023-01-27T20:16:43.013Z,43.08
2023-01-27T20:19:11.829Z,34.92
2023-01-27T20:21:38.574Z,35.75
2023-01-27T20:26:32.552Z,32.83
2023-01-27T20:28:59.909Z,43.33
2023-01-27T20:31:26.849Z,40.10
2023-01-27T20:33:53.549Z,45.60
2023-01-27T20:38:48.828Z,41.85
2023-01-27T20:41:19.136Z,45.65
2023-01-27T20:43:45.902Z,41.45
2023-01-27T20:46:16.538Z,43.25
2023-01-27T20:48:43.676Z,42.85
2023-01-27T20:51:13.085Z,44.00
2023-01-27T20:53:45.044Z,43.53
2023-01-27T20:56:17.586Z,42.13
2023-01-27T20:58:45.427Z,44.58
2023-01-27T21:01:18.300Z,44.53
2023-01-27T21:03:45.083Z,41.80
